sensor_id;sensor_type;location;lat;lon;timestamp;temperature;humidity
19928;DHT22;10126;50.876;4.470;2023-10-08T00:00:17;16.90;99.90
19928;DHT22;10126;50.876;4.470;2023-10-08T00:02:37;16.90;99.90
19928;DHT22;10126;50.876;4.470;2023-10-08T00:04:37;16.90;99.90
19928;DHT22;10126;50.876;4.470;2023-10-08T00:06:38;16.90;99.90
19928;DHT22;10126;50.876;4.470;2023-10-08T00:08:39;16.90;99.90
19928;DHT22;10126;50.876;4.470;2023-10-08T00:10:40;16.90;99.90
19928;DHT22;10126;50.876;4.470;2023-10-08T00:12:41;16.90;99.90
19928;DHT22;10126;50.876;4.470;2023-10-08T00:14:42;16.90;99.90
19928;DHT22;10126;50.876;4.470;2023-10-08T00:16:49;16.90;99.90
19928;DHT22;10126;50.876;4.470;2023-10-08T00:18:50;16.90;99.90
19928;DHT22;10126;50.876;4.470;2023-10-08T00:20:51;16.80;99.90
19928;DHT22;10126;50.876;4.470;2023-10-08T00:22:58;16.70;99.90
19928;DHT22;10126;50.876;4.470;2023-10-08T00:25:02;16.60;99.90
19928;DHT22;10126;50.876;4.470;2023-10-08T00:27:11;16.60;99.90
19928;DHT22;10126;50.876;4.470;2023-10-08T00:29:15;16.70;99.90
19928;DHT22;10126;50.876;4.470;2023-10-08T00:31:33;16.60;99.90
19928;DHT22;10126;50.876;4.470;2023-10-08T00:33:41;16.70;99.90
19928;DHT22;10126;50.876;4.470;2023-10-08T00:35:47;16.70;99.90
19928;DHT22;10126;50.876;4.470;2023-10-08T00:37:48;16.70;99.90
19928;DHT22;10126;50.876;4.470;2023-10-08T00:39:49;16.60;99.90
19928;DHT22;10126;50.876;4.470;2023-10-08T00:41:51;16.50;99.90
19928;DHT22;10126;50.876;4.470;2023-10-08T00:43:58;16.50;99.90
19928;DHT22;10126;50.876;4.470;2023-10-08T00:46:03;16.60;99.90
19928;DHT22;10126;50.876;4.470;2023-10-08T00:48:05;16.60;99.90
19928;DHT22;10126;50.876;4.470;2023-10-08T00:50:07;16.70;99.90
19928;DHT22;10126;50.876;4.470;2023-10-08T00:52:10;16.60;99.90
19928;DHT22;10126;50.876;4.470;2023-10-08T00:54:12;16.50;99.90
19928;DHT22;10126;50.876;4.470;2023-10-08T00:56:18;16.60;99.90
19928;DHT22;10126;50.876;4.470;2023-10-08T00:58:20;16.50;99.90
19928;DHT22;10126;50.876;4.470;2023-10-08T01:00:27;16.60;99.90
19928;DHT22;10126;50.876;4.470;2023-10-08T01:02:38;16.60;99.90
19928;DHT22;10126;50.876;4.470;2023-10-08T01:04:49;16.60;99.90
19928;DHT22;10126;50.876;4.470;2023-10-08T01:06:57;16.60;99.90
19928;DHT22;10126;50.876;4.470;2023-10-08T01:09:28;16.60;99.90
19928;DHT22;10126;50.876;4.470;2023-10-08T01:11:37;16.50;99.90
19928;DHT22;10126;50.876;4.470;2023-10-08T01:13:51;16.50;99.90
19928;DHT22;10126;50.876;4.470;2023-10-08T01:15:54;16.60;99.90
19928;DHT22;10126;50.876;4.470;2023-10-08T01:17:56;16.50;99.90
19928;DHT22;10126;50.876;4.470;2023-10-08T01:20:16;16.40;99.90
19928;DHT22;10126;50.876;4.470;2023-10-08T01:22:37;16.40;99.90
19928;DHT22;10126;50.876;4.470;2023-10-08T01:24:39;16.50;99.90
19928;DHT22;10126;50.876;4.470;2023-10-08T01:26:40;16.50;99.90
19928;DHT22;10126;50.876;4.470;2023-10-08T01:28:41;16.40;99.90
19928;DHT22;10126;50.876;4.470;2023-10-08T01:30:44;16.40;99.90
19928;DHT22;10126;50.876;4.470;2023-10-08T01:32:47;16.40;99.90
19928;DHT22;10126;50.876;4.470;2023-10-08T01:34:48;16.30;99.90
19928;DHT22;10126;50.876;4.470;2023-10-08T01:36:48;16.30;99.90
19928;DHT22;10126;50.876;4.470;2023-10-08T01:38:49;16.20;99.90
19928;DHT22;10126;50.876;4.470;2023-10-08T01:40:50;16.10;99.90
19928;DHT22;10126;50.876;4.470;2023-10-08T01:42:52;16.10;99.90
19928;DHT22;10126;50.876;4.470;2023-10-08T01:44:53;16.10;99.90
19928;DHT22;10126;50.876;4.470;2023-10-08T01:46:56;16.20;99.90
19928;DHT22;10126;50.876;4.470;2023-10-08T01:48:58;16.20;99.90
19928;DHT22;10126;50.876;4.470;2023-10-08T01:51:09;16.30;99.90
19928;DHT22;10126;50.876;4.470;2023-10-08T01:53:11;16.40;99.90
19928;DHT22;10126;50.876;4.470;2023-10-08T01:55:12;16.20;99.90
19928;DHT22;10126;50.876;4.470;2023-10-08T01:57:17;16.20;99.90
19928;DHT22;10126;50.876;4.470;2023-10-08T01:59:18;16.20;99.90
19928;DHT22;10126;50.876;4.470;2023-10-08T02:01:21;16.30;99.90
19928;DHT22;10126;50.876;4.470;2023-10-08T02:03:22;16.20;99.90
19928;DHT22;10126;50.876;4.470;2023-10-08T02:05:23;16.30;99.90
19928;DHT22;10126;50.876;4.470;2023-10-08T02:07:23;16.30;99.90
19928;DHT22;10126;50.876;4.470;2023-10-08T02:09:24;16.40;99.90
19928;DHT22;10126;50.876;4.470;2023-10-08T02:11:27;16.40;99.90
19928;DHT22;10126;50.876;4.470;2023-10-08T02:13:28;16.20;99.90
19928;DHT22;10126;50.876;4.470;2023-10-08T02:15:29;16.30;99.90
19928;DHT22;10126;50.876;4.470;2023-10-08T02:17:30;16.20;99.90
19928;DHT22;10126;50.876;4.470;2023-10-08T02:19:30;16.20;99.90
19928;DHT22;10126;50.876;4.470;2023-10-08T02:21:31;16.10;99.90
19928;DHT22;10126;50.876;4.470;2023-10-08T02:23:32;16.10;99.90
19928;DHT22;10126;50.876;4.470;2023-10-08T02:25:35;16.00;99.90
19928;DHT22;10126;50.876;4.470;2023-10-08T02:27:35;16.00;99.90
19928;DHT22;10126;50.876;4.470;2023-10-08T02:29:38;16.10;99.90
19928;DHT22;10126;50.876;4.470;2023-10-08T02:31:41;16.10;99.90
19928;DHT22;10126;50.876;4.470;2023-10-08T02:33:41;15.90;99.90
19928;DHT22;10126;50.876;4.470;2023-10-08T02:35:51;15.90;99.90
19928;DHT22;10126;50.876;4.470;2023-10-08T02:37:53;15.90;99.90
19928;DHT22;10126;50.876;4.470;2023-10-08T02:39:57;15.90;99.90
19928;DHT22;10126;50.876;4.470;2023-10-08T02:41:58;15.90;99.90
19928;DHT22;10126;50.876;4.470;2023-10-08T02:44:02;16.00;99.90
19928;DHT22;10126;50.876;4.470;2023-10-08T02:46:06;16.00;99.90
19928;DHT22;10126;50.876;4.470;2023-10-08T02:48:15;16.10;99.90
19928;DHT22;10126;50.876;4.470;2023-10-08T02:50:17;16.00;99.90
19928;DHT22;10126;50.876;4.470;2023-10-08T02:52:18;16.20;99.90
19928;DHT22;10126;50.876;4.470;2023-10-08T02:54:19;16.20;99.90
19928;DHT22;10126;50.876;4.470;2023-10-08T02:56:35;16.30;99.90
19928;DHT22;10126;50.876;4.470;2023-10-08T02:58:35;16.20;99.90
19928;DHT22;10126;50.876;4.470;2023-10-08T03:00:36;16.20;99.90
19928;DHT22;10126;50.876;4.470;2023-10-08T03:02:41;16.20;99.90
19928;DHT22;10126;50.876;4.470;2023-10-08T03:04:43;16.30;99.90
19928;DHT22;10126;50.876;4.470;2023-10-08T03:06:46;16.30;99.90
19928;DHT22;10126;50.876;4.470;2023-10-08T03:08:50;16.30;99.90
19928;DHT22;10126;50.876;4.470;2023-10-08T03:10:52;16.30;99.90
19928;DHT22;10126;50.876;4.470;2023-10-08T03:12:56;16.40;99.90
19928;DHT22;10126;50.876;4.470;2023-10-08T03:14:56;16.30;99.90
19928;DHT22;10126;50.876;4.470;2023-10-08T03:17:13;16.20;99.90
19928;DHT22;10126;50.876;4.470;2023-10-08T03:19:22;16.30;99.90
19928;DHT22;10126;50.876;4.470;2023-10-08T03:21:23;16.30;99.90
19928;DHT22;10126;50.876;4.470;2023-10-08T03:23:38;16.40;99.90
19928;DHT22;10126;50.876;4.470;2023-10-08T03:25:44;16.50;99.90
19928;DHT22;10126;50.876;4.470;2023-10-08T03:27:46;16.40;99.90
19928;DHT22;10126;50.876;4.470;2023-10-08T03:29:48;16.30;99.90
19928;DHT22;10126;50.876;4.470;2023-10-08T03:31:49;16.20;99.90
19928;DHT22;10126;50.876;4.470;2023-10-08T03:33:50;16.20;99.90
19928;DHT22;10126;50.876;4.470;2023-10-08T03:35:52;16.20;99.90
19928;DHT22;10126;50.876;4.470;2023-10-08T03:37:55;16.20;99.90
19928;DHT22;10126;50.876;4.470;2023-10-08T03:40:16;16.30;99.90
19928;DHT22;10126;50.876;4.470;2023-10-08T03:42:25;16.40;99.90
19928;DHT22;10126;50.876;4.470;2023-10-08T03:44:27;16.40;99.90
19928;DHT22;10126;50.876;4.470;2023-10-08T03:46:30;16.40;99.90
19928;DHT22;10126;50.876;4.470;2023-10-08T03:48:34;16.50;99.90
19928;DHT22;10126;50.876;4.470;2023-10-08T03:50:39;16.50;99.90
19928;DHT22;10126;50.876;4.470;2023-10-08T03:52:43;16.50;99.90
19928;DHT22;10126;50.876;4.470;2023-10-08T03:54:45;16.50;99.90
19928;DHT22;10126;50.876;4.470;2023-10-08T03:57:11;16.40;99.90
19928;DHT22;10126;50.876;4.470;2023-10-08T03:59:25;16.30;99.90
19928;DHT22;10126;50.876;4.470;2023-10-08T04:01:32;16.20;99.90
19928;DHT22;10126;50.876;4.470;2023-10-08T04:03:36;16.30;99.90
19928;DHT22;10126;50.876;4.470;2023-10-08T04:05:57;16.30;99.90
19928;DHT22;10126;50.876;4.470;2023-10-08T04:08:14;16.20;99.90
19928;DHT22;10126;50.876;4.470;2023-10-08T04:10:20;16.10;99.90
19928;DHT22;10126;50.876;4.470;2023-10-08T04:12:39;16.20;99.90
19928;DHT22;10126;50.876;4.470;2023-10-08T04:14:47;16.20;99.90
19928;DHT22;10126;50.876;4.470;2023-10-08T04:16:48;16.20;99.90
19928;DHT22;10126;50.876;4.470;2023-10-08T04:18:51;16.20;99.90
19928;DHT22;10126;50.876;4.470;2023-10-08T04:20:55;16.10;99.90
19928;DHT22;10126;50.876;4.470;2023-10-08T04:23:07;16.20;99.90
19928;DHT22;10126;50.876;4.470;2023-10-08T04:25:18;16.00;99.90
19928;DHT22;10126;50.876;4.470;2023-10-08T04:27:19;15.90;99.90
19928;DHT22;10126;50.876;4.470;2023-10-08T04:29:22;15.90;99.90
19928;DHT22;10126;50.876;4.470;2023-10-08T04:31:24;16.00;99.90
19928;DHT22;10126;50.876;4.470;2023-10-08T04:33:38;15.90;99.90
19928;DHT22;10126;50.876;4.470;2023-10-08T04:35:43;15.60;99.90
19928;DHT22;10126;50.876;4.470;2023-10-08T04:37:51;15.60;99.90
19928;DHT22;10126;50.876;4.470;2023-10-08T04:39:53;15.60;99.90
19928;DHT22;10126;50.876;4.470;2023-10-08T04:42:03;15.70;99.90
19928;DHT22;10126;50.876;4.470;2023-10-08T04:44:11;15.90;99.90
19928;DHT22;10126;50.876;4.470;2023-10-08T04:46:15;15.70;99.90
19928;DHT22;10126;50.876;4.470;2023-10-08T04:48:34;15.50;99.90
19928;DHT22;10126;50.876;4.470;2023-10-08T04:50:37;15.50;99.90
19928;DHT22;10126;50.876;4.470;2023-10-08T04:52:37;15.40;99.90
19928;DHT22;10126;50.876;4.470;2023-10-08T04:54:56;15.40;99.90
19928;DHT22;10126;50.876;4.470;2023-10-08T04:56:58;15.30;99.90
19928;DHT22;10126;50.876;4.470;2023-10-08T04:58:59;15.40;99.90
19928;DHT22;10126;50.876;4.470;2023-10-08T05:01:00;15.20;99.90
19928;DHT22;10126;50.876;4.470;2023-10-08T05:03:17;15.10;99.90
19928;DHT22;10126;50.876;4.470;2023-10-08T05:05:20;15.20;99.90
19928;DHT22;10126;50.876;4.470;2023-10-08T05:07:24;15.30;99.90
19928;DHT22;10126;50.876;4.470;2023-10-08T05:09:44;15.40;99.90
19928;DHT22;10126;50.876;4.470;2023-10-08T05:11:52;15.20;99.90
19928;DHT22;10126;50.876;4.470;2023-10-08T05:13:53;15.30;99.90
19928;DHT22;10126;50.876;4.470;2023-10-08T05:16:01;15.20;99.90
19928;DHT22;10126;50.876;4.470;2023-10-08T05:18:11;15.20;99.90
19928;DHT22;10126;50.876;4.470;2023-10-08T05:20:12;15.10;99.90
19928;DHT22;10126;50.876;4.470;2023-10-08T05:22:31;15.30;99.90
19928;DHT22;10126;50.876;4.470;2023-10-08T05:24:39;15.30;99.90
19928;DHT22;10126;50.876;4.470;2023-10-08T05:26:41;15.30;99.90
19928;DHT22;10126;50.876;4.470;2023-10-08T05:28:44;15.20;99.90
19928;DHT22;10126;50.876;4.470;2023-10-08T05:31:09;15.10;99.90
19928;DHT22;10126;50.876;4.470;2023-10-08T05:33:15;15.20;99.90
19928;DHT22;10126;50.876;4.470;2023-10-08T05:35:16;15.10;99.90
19928;DHT22;10126;50.876;4.470;2023-10-08T05:37:49;15.10;99.90
19928;DHT22;10126;50.876;4.470;2023-10-08T05:40:03;15.20;99.90
19928;DHT22;10126;50.876;4.470;2023-10-08T05:42:18;15.30;99.90
19928;DHT22;10126;50.876;4.470;2023-10-08T05:44:32;15.40;99.90
19928;DHT22;10126;50.876;4.470;2023-10-08T05:46:46;15.40;99.90
19928;DHT22;10126;50.876;4.470;2023-10-08T05:48:58;15.40;99.90
19928;DHT22;10126;50.876;4.470;2023-10-08T05:51:07;15.40;99.90
19928;DHT22;10126;50.876;4.470;2023-10-08T05:53:24;15.40;99.90
19928;DHT22;10126;50.876;4.470;2023-10-08T05:55:43;15.50;99.90
19928;DHT22;10126;50.876;4.470;2023-10-08T05:58:06;15.50;99.90
19928;DHT22;10126;50.876;4.470;2023-10-08T06:00:18;15.50;99.90
19928;DHT22;10126;50.876;4.470;2023-10-08T06:02:42;15.60;99.90
19928;DHT22;10126;50.876;4.470;2023-10-08T06:04:46;15.70;99.90
19928;DHT22;10126;50.876;4.470;2023-10-08T06:07:07;15.80;99.90
19928;DHT22;10126;50.876;4.470;2023-10-08T06:09:17;15.80;99.90
19928;DHT22;10126;50.876;4.470;2023-10-08T06:11:36;15.90;99.90
19928;DHT22;10126;50.876;4.470;2023-10-08T06:14:09;16.00;99.90
19928;DHT22;10126;50.876;4.470;2023-10-08T06:16:43;16.20;99.90
19928;DHT22;10126;50.876;4.470;2023-10-08T06:18:44;16.30;99.90
19928;DHT22;10126;50.876;4.470;2023-10-08T06:20:47;16.30;99.90
19928;DHT22;10126;50.876;4.470;2023-10-08T06:22:48;16.30;99.90
19928;DHT22;10126;50.876;4.470;2023-10-08T06:24:49;16.40;99.90
19928;DHT22;10126;50.876;4.470;2023-10-08T06:26:50;16.60;99.90
19928;DHT22;10126;50.876;4.470;2023-10-08T06:28:50;16.70;99.90
19928;DHT22;10126;50.876;4.470;2023-10-08T06:30:57;16.90;99.90
19928;DHT22;10126;50.876;4.470;2023-10-08T06:32:59;17.10;99.90
19928;DHT22;10126;50.876;4.470;2023-10-08T06:35:01;17.30;99.90
19928;DHT22;10126;50.876;4.470;2023-10-08T06:37:03;17.40;99.90
19928;DHT22;10126;50.876;4.470;2023-10-08T06:39:04;17.60;99.90
19928;DHT22;10126;50.876;4.470;2023-10-08T06:41:12;17.60;99.90
19928;DHT22;10126;50.876;4.470;2023-10-08T06:43:13;17.70;99.90
19928;DHT22;10126;50.876;4.470;2023-10-08T06:45:35;17.80;99.90
19928;DHT22;10126;50.876;4.470;2023-10-08T06:47:39;18.00;99.90
19928;DHT22;10126;50.876;4.470;2023-10-08T06:49:41;18.30;99.90
19928;DHT22;10126;50.876;4.470;2023-10-08T06:51:42;18.50;99.90
19928;DHT22;10126;50.876;4.470;2023-10-08T06:53:46;18.70;99.90
19928;DHT22;10126;50.876;4.470;2023-10-08T06:55:47;19.00;99.90
19928;DHT22;10126;50.876;4.470;2023-10-08T06:57:48;19.20;99.90
19928;DHT22;10126;50.876;4.470;2023-10-08T06:59:49;19.30;99.90
19928;DHT22;10126;50.876;4.470;2023-10-08T07:01:51;19.50;99.90
19928;DHT22;10126;50.876;4.470;2023-10-08T07:03:53;19.50;99.90
19928;DHT22;10126;50.876;4.470;2023-10-08T07:05:58;19.70;99.90
19928;DHT22;10126;50.876;4.470;2023-10-08T07:08:00;19.90;99.90
19928;DHT22;10126;50.876;4.470;2023-10-08T07:10:07;20.30;99.90
19928;DHT22;10126;50.876;4.470;2023-10-08T07:12:11;20.70;99.90
19928;DHT22;10126;50.876;4.470;2023-10-08T07:14:14;21.20;99.90
19928;DHT22;10126;50.876;4.470;2023-10-08T07:16:15;21.50;99.90
19928;DHT22;10126;50.876;4.470;2023-10-08T07:18:18;21.80;99.90
19928;DHT22;10126;50.876;4.470;2023-10-08T07:20:25;22.30;99.90
19928;DHT22;10126;50.876;4.470;2023-10-08T07:22:26;22.50;99.90
19928;DHT22;10126;50.876;4.470;2023-10-08T07:24:29;22.90;99.90
19928;DHT22;10126;50.876;4.470;2023-10-08T07:26:31;23.30;99.90
19928;DHT22;10126;50.876;4.470;2023-10-08T07:28:41;23.70;99.90
19928;DHT22;10126;50.876;4.470;2023-10-08T07:30:42;23.80;99.90
19928;DHT22;10126;50.876;4.470;2023-10-08T07:32:44;23.80;99.90
19928;DHT22;10126;50.876;4.470;2023-10-08T07:34:45;23.60;99.90
19928;DHT22;10126;50.876;4.470;2023-10-08T07:36:48;23.10;99.90
19928;DHT22;10126;50.876;4.470;2023-10-08T07:38:53;22.70;99.90
19928;DHT22;10126;50.876;4.470;2023-10-08T07:40:54;22.80;99.90
19928;DHT22;10126;50.876;4.470;2023-10-08T07:42:55;23.10;99.90
19928;DHT22;10126;50.876;4.470;2023-10-08T07:44:59;23.30;99.90
19928;DHT22;10126;50.876;4.470;2023-10-08T07:47:00;23.50;99.90
19928;DHT22;10126;50.876;4.470;2023-10-08T07:49:00;23.60;99.90
19928;DHT22;10126;50.876;4.470;2023-10-08T07:51:01;23.40;99.90
19928;DHT22;10126;50.876;4.470;2023-10-08T07:53:03;23.10;99.90
19928;DHT22;10126;50.876;4.470;2023-10-08T07:55:04;23.00;99.90
19928;DHT22;10126;50.876;4.470;2023-10-08T07:57:05;22.90;99.90
19928;DHT22;10126;50.876;4.470;2023-10-08T07:59:09;22.70;99.90
19928;DHT22;10126;50.876;4.470;2023-10-08T08:01:10;22.60;99.90
19928;DHT22;10126;50.876;4.470;2023-10-08T08:03:14;22.50;99.90
19928;DHT22;10126;50.876;4.470;2023-10-08T08:05:14;22.40;99.90
19928;DHT22;10126;50.876;4.470;2023-10-08T08:07:17;22.10;99.90
19928;DHT22;10126;50.876;4.470;2023-10-08T08:09:18;22.00;99.90
19928;DHT22;10126;50.876;4.470;2023-10-08T08:11:20;21.50;99.90
19928;DHT22;10126;50.876;4.470;2023-10-08T08:13:26;21.40;99.90
19928;DHT22;10126;50.876;4.470;2023-10-08T08:15:28;21.20;99.90
19928;DHT22;10126;50.876;4.470;2023-10-08T08:17:29;21.30;99.90
19928;DHT22;10126;50.876;4.470;2023-10-08T08:19:31;21.40;99.90
19928;DHT22;10126;50.876;4.470;2023-10-08T08:21:32;21.50;99.90
19928;DHT22;10126;50.876;4.470;2023-10-08T08:23:32;21.80;99.90
19928;DHT22;10126;50.876;4.470;2023-10-08T08:25:39;21.90;99.90
19928;DHT22;10126;50.876;4.470;2023-10-08T08:27:47;22.00;99.90
19928;DHT22;10126;50.876;4.470;2023-10-08T08:29:52;22.10;99.90
19928;DHT22;10126;50.876;4.470;2023-10-08T08:31:56;22.10;99.90
19928;DHT22;10126;50.876;4.470;2023-10-08T08:33:58;22.00;99.90
19928;DHT22;10126;50.876;4.470;2023-10-08T08:36:14;22.20;99.90
19928;DHT22;10126;50.876;4.470;2023-10-08T08:38:15;21.80;99.90
19928;DHT22;10126;50.876;4.470;2023-10-08T08:40:18;21.60;99.90
19928;DHT22;10126;50.876;4.470;2023-10-08T08:42:22;21.40;99.90
19928;DHT22;10126;50.876;4.470;2023-10-08T08:44:23;21.40;99.90
19928;DHT22;10126;50.876;4.470;2023-10-08T08:46:34;21.70;99.90
19928;DHT22;10126;50.876;4.470;2023-10-08T08:48:36;21.90;99.90
19928;DHT22;10126;50.876;4.470;2023-10-08T08:50:39;22.10;99.90
19928;DHT22;10126;50.876;4.470;2023-10-08T08:52:40;22.30;99.90
19928;DHT22;10126;50.876;4.470;2023-10-08T08:54:41;22.60;99.90
19928;DHT22;10126;50.876;4.470;2023-10-08T08:56:45;22.90;99.90
19928;DHT22;10126;50.876;4.470;2023-10-08T08:58:46;22.90;99.90
19928;DHT22;10126;50.876;4.470;2023-10-08T09:00:47;23.00;99.90
19928;DHT22;10126;50.876;4.470;2023-10-08T09:02:49;23.00;99.90
19928;DHT22;10126;50.876;4.470;2023-10-08T09:04:50;22.90;99.90
19928;DHT22;10126;50.876;4.470;2023-10-08T09:06:50;22.90;99.90
19928;DHT22;10126;50.876;4.470;2023-10-08T09:08:54;22.70;99.90
19928;DHT22;10126;50.876;4.470;2023-10-08T09:10:58;22.90;99.90
19928;DHT22;10126;50.876;4.470;2023-10-08T09:13:01;22.70;99.90
19928;DHT22;10126;50.876;4.470;2023-10-08T09:15:02;22.90;99.90
19928;DHT22;10126;50.876;4.470;2023-10-08T09:17:04;22.90;99.90
19928;DHT22;10126;50.876;4.470;2023-10-08T09:19:05;22.90;99.90
19928;DHT22;10126;50.876;4.470;2023-10-08T09:21:17;22.90;99.90
19928;DHT22;10126;50.876;4.470;2023-10-08T09:23:24;23.10;99.90
19928;DHT22;10126;50.876;4.470;2023-10-08T09:25:26;22.90;99.90
19928;DHT22;10126;50.876;4.470;2023-10-08T09:27:29;22.80;99.90
19928;DHT22;10126;50.876;4.470;2023-10-08T09:29:31;22.80;99.90
19928;DHT22;10126;50.876;4.470;2023-10-08T09:31:32;22.80;99.90
19928;DHT22;10126;50.876;4.470;2023-10-08T09:33:35;22.70;99.90
19928;DHT22;10126;50.876;4.470;2023-10-08T09:35:36;22.60;99.90
19928;DHT22;10126;50.876;4.470;2023-10-08T09:37:38;22.70;99.90
19928;DHT22;10126;50.876;4.470;2023-10-08T09:39:41;22.70;99.90
19928;DHT22;10126;50.876;4.470;2023-10-08T09:41:43;22.60;99.90
19928;DHT22;10126;50.876;4.470;2023-10-08T09:43:46;22.60;99.90
19928;DHT22;10126;50.876;4.470;2023-10-08T09:45:55;22.50;99.90
19928;DHT22;10126;50.876;4.470;2023-10-08T09:47:58;22.50;99.90
19928;DHT22;10126;50.876;4.470;2023-10-08T09:50:04;22.50;99.90
19928;DHT22;10126;50.876;4.470;2023-10-08T09:52:08;22.50;99.90
19928;DHT22;10126;50.876;4.470;2023-10-08T09:54:15;22.50;99.90
19928;DHT22;10126;50.876;4.470;2023-10-08T09:56:20;22.40;99.90
19928;DHT22;10126;50.876;4.470;2023-10-08T09:58:24;22.60;99.90
19928;DHT22;10126;50.876;4.470;2023-10-08T10:00:27;22.50;99.90
19928;DHT22;10126;50.876;4.470;2023-10-08T10:02:32;22.80;99.90
19928;DHT22;10126;50.876;4.470;2023-10-08T10:04:33;22.70;99.90
19928;DHT22;10126;50.876;4.470;2023-10-08T10:06:37;22.80;99.90
19928;DHT22;10126;50.876;4.470;2023-10-08T10:08:42;22.80;99.90
19928;DHT22;10126;50.876;4.470;2023-10-08T10:10:43;23.00;99.90
19928;DHT22;10126;50.876;4.470;2023-10-08T10:12:48;23.10;99.90
19928;DHT22;10126;50.876;4.470;2023-10-08T10:14:55;23.10;99.90
19928;DHT22;10126;50.876;4.470;2023-10-08T10:17:28;23.20;99.90
19928;DHT22;10126;50.876;4.470;2023-10-08T10:19:29;23.50;99.90
19928;DHT22;10126;50.876;4.470;2023-10-08T10:21:32;23.50;99.90
19928;DHT22;10126;50.876;4.470;2023-10-08T10:23:46;23.30;99.90
19928;DHT22;10126;50.876;4.470;2023-10-08T10:25:50;23.40;99.90
19928;DHT22;10126;50.876;4.470;2023-10-08T10:29:53;23.70;99.90
19928;DHT22;10126;50.876;4.470;2023-10-08T10:32:04;23.70;99.90
19928;DHT22;10126;50.876;4.470;2023-10-08T10:34:06;23.60;99.90
19928;DHT22;10126;50.876;4.470;2023-10-08T10:36:10;23.70;99.90
19928;DHT22;10126;50.876;4.470;2023-10-08T10:38:14;23.80;99.90
19928;DHT22;10126;50.876;4.470;2023-10-08T10:40:22;24.00;99.90
19928;DHT22;10126;50.876;4.470;2023-10-08T10:42:41;24.00;99.90
19928;DHT22;10126;50.876;4.470;2023-10-08T10:44:48;23.80;99.90
19928;DHT22;10126;50.876;4.470;2023-10-08T10:46:53;23.50;99.90
19928;DHT22;10126;50.876;4.470;2023-10-08T10:49:23;23.60;99.90
19928;DHT22;10126;50.876;4.470;2023-10-08T10:51:37;23.40;99.90
19928;DHT22;10126;50.876;4.470;2023-10-08T10:53:42;23.30;99.90
19928;DHT22;10126;50.876;4.470;2023-10-08T10:55:58;23.30;99.90
19928;DHT22;10126;50.876;4.470;2023-10-08T10:58:11;23.20;99.90
19928;DHT22;10126;50.876;4.470;2023-10-08T11:00:12;23.20;99.90
19928;DHT22;10126;50.876;4.470;2023-10-08T11:02:31;23.30;99.90
19928;DHT22;10126;50.876;4.470;2023-10-08T11:04:32;23.40;99.90
19928;DHT22;10126;50.876;4.470;2023-10-08T11:06:34;23.50;99.90
19928;DHT22;10126;50.876;4.470;2023-10-08T11:08:38;23.50;99.90
19928;DHT22;10126;50.876;4.470;2023-10-08T11:10:39;23.60;99.90
19928;DHT22;10126;50.876;4.470;2023-10-08T11:12:43;23.30;99.90
19928;DHT22;10126;50.876;4.470;2023-10-08T11:14:47;23.50;99.90
19928;DHT22;10126;50.876;4.470;2023-10-08T11:16:48;23.60;99.90
19928;DHT22;10126;50.876;4.470;2023-10-08T11:18:50;23.60;99.90
19928;DHT22;10126;50.876;4.470;2023-10-08T11:20:51;23.70;99.90
19928;DHT22;10126;50.876;4.470;2023-10-08T11:23:01;23.80;99.90
19928;DHT22;10126;50.876;4.470;2023-10-08T11:25:24;23.80;99.90
19928;DHT22;10126;50.876;4.470;2023-10-08T11:27:31;23.90;99.90
19928;DHT22;10126;50.876;4.470;2023-10-08T11:29:38;24.10;99.90
19928;DHT22;10126;50.876;4.470;2023-10-08T11:31:40;23.90;99.90
19928;DHT22;10126;50.876;4.470;2023-10-08T11:33:42;23.70;99.90
19928;DHT22;10126;50.876;4.470;2023-10-08T11:36:06;23.90;99.90
19928;DHT22;10126;50.876;4.470;2023-10-08T11:38:07;23.80;99.90
19928;DHT22;10126;50.876;4.470;2023-10-08T11:40:25;23.90;99.90
19928;DHT22;10126;50.876;4.470;2023-10-08T11:42:28;23.80;99.90
19928;DHT22;10126;50.876;4.470;2023-10-08T11:44:32;24.00;99.90
19928;DHT22;10126;50.876;4.470;2023-10-08T11:46:36;24.10;99.90
19928;DHT22;10126;50.876;4.470;2023-10-08T11:48:39;24.00;99.90
19928;DHT22;10126;50.876;4.470;2023-10-08T11:50:43;24.00;99.90
19928;DHT22;10126;50.876;4.470;2023-10-08T11:52:45;24.00;99.90
19928;DHT22;10126;50.876;4.470;2023-10-08T11:54:45;23.90;99.90
19928;DHT22;10126;50.876;4.470;2023-10-08T11:56:49;23.90;99.90
19928;DHT22;10126;50.876;4.470;2023-10-08T11:58:52;23.80;99.90
19928;DHT22;10126;50.876;4.470;2023-10-08T12:00:53;23.80;99.90
19928;DHT22;10126;50.876;4.470;2023-10-08T12:02:53;24.00;99.90
19928;DHT22;10126;50.876;4.470;2023-10-08T12:04:57;24.10;99.90
19928;DHT22;10126;50.876;4.470;2023-10-08T12:06:58;24.00;99.90
19928;DHT22;10126;50.876;4.470;2023-10-08T12:09:03;24.10;99.90
19928;DHT22;10126;50.876;4.470;2023-10-08T12:11:13;24.00;99.90
19928;DHT22;10126;50.876;4.470;2023-10-08T12:13:14;23.90;99.90
19928;DHT22;10126;50.876;4.470;2023-10-08T12:15:22;24.00;99.90
19928;DHT22;10126;50.876;4.470;2023-10-08T12:17:26;24.20;99.90
19928;DHT22;10126;50.876;4.470;2023-10-08T12:19:38;24.00;99.90
19928;DHT22;10126;50.876;4.470;2023-10-08T12:21:46;24.00;99.90
19928;DHT22;10126;50.876;4.470;2023-10-08T12:23:47;24.00;99.90
19928;DHT22;10126;50.876;4.470;2023-10-08T12:25:51;24.10;99.90
19928;DHT22;10126;50.876;4.470;2023-10-08T12:27:51;24.30;99.90
19928;DHT22;10126;50.876;4.470;2023-10-08T12:29:52;24.50;99.90
19928;DHT22;10126;50.876;4.470;2023-10-08T12:31:53;24.50;99.90
19928;DHT22;10126;50.876;4.470;2023-10-08T12:33:54;24.50;99.90
19928;DHT22;10126;50.876;4.470;2023-10-08T12:35:58;24.50;99.90
19928;DHT22;10126;50.876;4.470;2023-10-08T12:38:06;24.70;99.90
19928;DHT22;10126;50.876;4.470;2023-10-08T12:40:07;24.90;99.90
19928;DHT22;10126;50.876;4.470;2023-10-08T12:42:37;24.80;99.90
19928;DHT22;10126;50.876;4.470;2023-10-08T12:44:44;24.70;99.90
19928;DHT22;10126;50.876;4.470;2023-10-08T12:46:45;24.80;99.90
19928;DHT22;10126;50.876;4.470;2023-10-08T12:48:52;24.90;99.90
19928;DHT22;10126;50.876;4.470;2023-10-08T12:50:54;25.20;99.90
19928;DHT22;10126;50.876;4.470;2023-10-08T12:52:58;25.10;99.90
19928;DHT22;10126;50.876;4.470;2023-10-08T12:55:04;24.90;99.90
19928;DHT22;10126;50.876;4.470;2023-10-08T12:57:06;25.00;99.90
19928;DHT22;10126;50.876;4.470;2023-10-08T12:59:09;24.50;99.90
19928;DHT22;10126;50.876;4.470;2023-10-08T13:01:20;24.50;99.90
19928;DHT22;10126;50.876;4.470;2023-10-08T13:03:21;24.40;99.90
19928;DHT22;10126;50.876;4.470;2023-10-08T13:05:24;24.30;99.90
19928;DHT22;10126;50.876;4.470;2023-10-08T13:07:28;24.00;99.90
19928;DHT22;10126;50.876;4.470;2023-10-08T13:09:33;23.80;99.90
19928;DHT22;10126;50.876;4.470;2023-10-08T13:11:37;23.90;99.90
19928;DHT22;10126;50.876;4.470;2023-10-08T13:13:39;23.90;99.90